Terminal Aerodrome Forecast
Issued by NWS Sterling, VA

Home | Current Version | Previous Version | Text Only | Print | Product List | Glossary On
Versions: 1 2 3 4 5 6 7 8 9 10 11 12 13 14 15 16 17 18 19
486
FTUS41 KLWX 220847 AAA
TAFDCA
TAF AMD
KDCA 220847Z 2209/2306 32009KT P6SM BKN045
     FM221900 25007KT P6SM BKN050
     FM222300 25006KT P6SM -SHRA VCTS BKN050CB=

USA.gov is the U.S. government's official web portal to all federal, state and local government web resources and services.